createdAt,value
2022-09-13T00:06:47.543Z,1.65
2022-09-13T00:16:50.607Z,1.70
2022-09-13T00:26:55.019Z,1.60
2022-09-13T00:36:58.146Z,1.50
2022-09-13T00:47:02.733Z,1.75
2022-09-13T00:57:06.970Z,1.75
2022-09-13T01:07:13.933Z,1.70
2022-09-13T01:17:16.975Z,1.80
2022-09-13T01:27:31.180Z,2.15
2022-09-13T01:37:51.674Z,1.90
2022-09-13T01:47:59.866Z,1.67
2022-09-13T01:58:14.212Z,2.00
2022-09-13T02:08:21.106Z,1.85
2022-09-13T02:18:30.744Z,1.80
2022-09-13T02:28:37.880Z,1.60
2022-09-13T02:38:45.742Z,1.50
2022-09-13T02:48:57.382Z,1.52
2022-09-13T02:59:07.048Z,1.70
2022-09-13T03:09:10.981Z,1.70
2022-09-13T03:19:26.752Z,1.75
2022-09-13T03:29:38.130Z,1.58
2022-09-13T03:39:48.569Z,1.90
2022-09-13T03:49:52.598Z,1.63
2022-09-13T03:59:58.577Z,1.80
2022-09-13T04:10:01.599Z,1.85
2022-09-13T04:20:06.797Z,1.85
2022-09-13T04:30:11.572Z,1.40
2022-09-13T04:40:16.132Z,1.40
2022-09-13T04:50:20.669Z,1.52
2022-09-13T05:00:26.130Z,1.50
2022-09-13T05:10:29.151Z,1.40
2022-09-13T05:20:33.531Z,1.30
2022-09-13T05:30:40.411Z,1.63
2022-09-13T05:40:47.138Z,1.80
2022-09-13T05:50:58.774Z,1.70
2022-09-13T06:01:03.305Z,1.48
2022-09-13T06:11:08.177Z,1.38
2022-09-13T06:21:17.746Z,1.48
2022-09-13T06:31:23.125Z,1.33
2022-09-13T06:41:28.108Z,1.45
2022-09-13T06:51:32.590Z,1.40
2022-09-13T07:01:38.996Z,1.35
2022-09-13T07:11:43.301Z,1.50
2022-09-13T07:21:49.778Z,1.50
2022-09-13T07:31:54.865Z,1.45
2022-09-13T07:41:59.262Z,1.40
2022-09-13T07:52:02.565Z,1.13
2022-09-13T08:02:07.218Z,1.08
2022-09-13T08:12:10.300Z,0.90
2022-09-13T08:22:14.701Z,0.90
2022-09-13T08:32:17.701Z,1.02
2022-09-13T08:42:40.914Z,1.00
2022-09-13T08:52:55.811Z,1.35
2022-09-13T09:03:11.832Z,1.30
2022-09-13T09:13:24.516Z,1.40
2022-09-13T09:23:37.954Z,1.50
2022-09-13T09:33:55.839Z,1.30
2022-09-13T09:44:11.490Z,1.35
2022-09-13T09:54:14.562Z,1.17
2022-09-13T10:04:23.502Z,1.30
2022-09-13T10:14:39.124Z,1.30
2022-09-13T10:24:44.482Z,1.23
2022-09-13T10:34:49.728Z,0.93
2022-09-13T10:44:58.549Z,1.00
2022-09-13T10:55:44.596Z,1.00
2022-09-13T11:05:56.762Z,0.80
2022-09-13T11:16:05.582Z,0.82
2022-09-13T11:26:31.091Z,0.80
2022-09-13T11:36:58.070Z,1.00
2022-09-13T11:47:09.665Z,0.88
2022-09-13T11:57:16.154Z,0.70
2022-09-13T12:07:32.579Z,0.90
2022-09-13T12:17:39.597Z,0.80
2022-09-13T12:27:49.800Z,0.90
2022-09-13T12:38:10.289Z,1.30
2022-09-13T12:48:39.803Z,1.33
2022-09-13T12:59:20.883Z,1.30
2022-09-13T13:09:40.947Z,1.10
2022-09-13T13:19:44.985Z,1.42
2022-09-13T13:30:27.600Z,1.20
2022-09-13T13:40:30.949Z,1.25
2022-09-13T13:50:37.771Z,1.27
2022-09-13T14:00:49.129Z,1.48
2022-09-13T14:11:00.564Z,1.35
2022-09-13T14:21:05.858Z,1.88
2022-09-13T14:31:20.231Z,1.67
2022-09-13T14:41:30.707Z,1.90
2022-09-13T14:51:45.076Z,1.65
2022-09-13T15:01:48.203Z,1.45
2022-09-13T15:12:01.098Z,2.00
2022-09-13T15:22:07.077Z,1.60
2022-09-13T15:32:23.457Z,1.80
2022-09-13T15:42:26.463Z,1.70
2022-09-13T15:52:33.688Z,1.85
2022-09-13T16:02:36.802Z,1.70
2022-09-13T16:12:41.165Z,1.73
2022-09-13T16:22:44.932Z,1.90
2022-09-13T16:32:50.000Z,2.17
2022-09-13T16:42:54.175Z,2.13
2022-09-13T16:52:58.612Z,2.00
2022-09-13T17:03:01.691Z,2.47
2022-09-13T17:13:06.104Z,2.13
2022-09-13T17:23:09.093Z,1.77
2022-09-13T17:33:13.878Z,1.80
2022-09-13T17:43:16.882Z,1.88
2022-09-13T17:53:21.247Z,1.83
2022-09-13T18:03:24.291Z,2.05
2022-09-13T18:13:28.667Z,2.30
2022-09-13T18:23:32.592Z,2.53
2022-09-13T18:33:37.552Z,2.30
2022-09-13T18:43:42.283Z,2.45
2022-09-13T18:53:47.615Z,2.00
2022-09-13T19:03:52.400Z,2.03
2022-09-13T19:13:56.794Z,2.20
2022-09-13T19:24:05.229Z,2.40
2022-09-13T19:34:14.714Z,2.72
2022-09-13T19:44:17.801Z,2.20
2022-09-13T19:54:22.187Z,1.80
2022-09-13T20:04:25.969Z,2.17
2022-09-13T20:14:31.035Z,2.20
2022-09-13T20:24:34.027Z,2.42
2022-09-13T20:34:39.217Z,2.40
2022-09-13T20:44:42.474Z,2.13
2022-09-13T20:54:46.833Z,2.80
2022-09-13T21:04:49.824Z,2.47
2022-09-13T21:14:54.180Z,2.10
2022-09-13T21:24:57.219Z,2.45
2022-09-13T21:35:01.609Z,2.25
2022-09-13T21:45:05.834Z,2.13
2022-09-13T21:55:10.547Z,2.25
2022-09-13T22:05:13.545Z,2.38
2022-09-13T22:15:18.398Z,2.58
2022-09-13T22:25:22.049Z,2.22
2022-09-13T22:35:26.523Z,2.50
2022-09-13T22:45:29.598Z,2.10
2022-09-13T22:55:35.094Z,2.47
2022-09-13T23:05:38.730Z,2.25
2022-09-13T23:15:43.077Z,2.70
2022-09-13T23:25:46.269Z,2.42
2022-09-13T23:35:50.907Z,2.50
2022-09-13T23:45:54.017Z,2.42
2022-09-13T23:55:58.470Z,2.47
